Terminal Aerodrome Forecast
Issued by NWS Pocatello, ID

Home | Current Version | Previous Version | Text Only | Print | Product List | Glossary On
Versions: 1 2 3 4 5 6 7 8 9 10 11 12 13 14 15 16 17 18 19 20 21 22 23 24 25 26 27 28 29 30 31
233
FTUS45 KPIH 081725
TAFIDA
TAF
KIDA 081725Z 0818/0918 36005KT 2SM BR BKN003 OVC010
     FM082200 36005KT 6SM BR OVC012
     FM090400 01005KT 1/2SM FZFG VV003=

USA.gov is the U.S. government's official web portal to all federal, state and local government web resources and services.